Time;durP1;ratioP1;P1;durP2;ratioP2;P2;SDS_P1;SDS_P2;PMS_P1;PMS_P2;Temp;Humidity;BMP_temperature;BMP_pressure;BME280_temperature;BME280_humidity;BME280_pressure;Samples;Min_cycle;Max_cycle;Signal;HPM_P1;HPM_P2
2021/10/09 00:00:55;;;;;;;14.13;8.87;;;9.00;99.90;;;;;;6189032;22;20162;-87
2021/10/09 00:03:21;;;;;;;15.30;9.90;;;9.10;99.90;;;;;;6188770;23;20153;-87
2021/10/09 00:05:47;;;;;;;12.57;7.57;;;9.20;99.90;;;;;;6213792;23;20197;-88
2021/10/09 00:08:17;;;;;;;20.10;11.30;;;9.20;99.90;;;;;;6238663;22;20208;-87
2021/10/09 00:10:44;;;;;;;17.40;11.10;;;9.20;99.90;;;;;;6214665;23;20235;-88
2021/10/09 00:13:10;;;;;;;13.80;8.17;;;9.30;99.90;;;;;;6238707;22;20157;-88
2021/10/09 00:15:36;;;;;;;18.73;12.00;;;9.30;99.90;;;;;;6238909;23;20158;-89
2021/10/09 00:18:02;;;;;;;12.60;8.73;;;9.30;99.90;;;;;;6212803;23;20200;-87
2021/10/09 00:20:29;;;;;;;18.83;11.00;;;9.30;99.90;;;;;;6238658;22;20284;-87
2021/10/09 00:22:55;;;;;;;18.70;10.23;;;9.20;99.90;;;;;;6213095;23;20543;-88
2021/10/09 00:25:22;;;;;;;10.77;8.43;;;9.10;99.90;;;;;;6239468;22;20838;-86
2021/10/09 00:27:48;;;;;;;19.60;9.27;;;9.20;99.90;;;;;;6188736;23;20157;-86
2021/10/09 00:30:13;;;;;;;18.97;11.73;;;9.10;99.90;;;;;;6237936;22;20673;-89
2021/10/09 00:32:39;;;;;;;21.67;12.47;;;9.10;99.90;;;;;;6187855;23;20205;-86
2021/10/09 00:35:06;;;;;;;11.77;8.93;;;9.00;99.90;;;;;;6237693;22;20200;-87
2021/10/09 00:37:31;;;;;;;15.00;9.13;;;8.90;99.90;;;;;;6188381;23;20278;-86
2021/10/09 00:39:57;;;;;;;15.00;8.87;;;8.90;99.90;;;;;;6213313;22;20161;-86
2021/10/09 00:42:24;;;;;;;17.00;10.07;;;8.90;99.90;;;;;;6188598;23;20232;-87
2021/10/09 00:44:50;;;;;;;19.33;10.37;;;9.00;99.90;;;;;;6212963;23;20267;-87
2021/10/09 00:47:16;;;;;;;16.90;9.93;;;9.00;99.90;;;;;;6237736;22;20201;-87
2021/10/09 00:49:42;;;;;;;10.83;8.03;;;9.00;99.90;;;;;;6212833;23;20570;-86
2021/10/09 00:52:10;;;;;;;15.90;8.63;;;9.10;99.90;;;;;;6187856;22;20164;-86
2021/10/09 00:54:40;;;;;;;15.40;8.87;;;9.10;99.90;;;;;;6213300;23;20158;-88
2021/10/09 00:57:08;;;;;;;19.77;10.80;;;9.10;99.90;;;;;;6237822;22;20375;-88
2021/10/09 00:59:37;;;;;;;15.30;8.90;;;9.10;99.90;;;;;;6213132;23;20193;-87
2021/10/09 01:02:03;;;;;;;22.83;9.37;;;9.00;99.90;;;;;;6237705;22;20193;-89
2021/10/09 01:04:31;;;;;;;16.10;9.23;;;8.90;99.90;;;;;;6239894;22;20562;-86
2021/10/09 01:06:57;;;;;;;15.97;10.07;;;8.90;99.90;;;;;;6237894;22;20160;-85
2021/10/09 01:09:22;;;;;;;17.53;10.30;;;8.80;99.90;;;;;;6188505;23;20161;-85
2021/10/09 01:11:48;;;;;;;14.30;8.83;;;8.90;99.90;;;;;;6187326;23;20276;-87
2021/10/09 01:14:14;;;;;;;17.27;11.10;;;8.90;99.90;;;;;;6237377;22;20276;-86
2021/10/09 01:16:40;;;;;;;17.23;9.23;;;8.90;99.90;;;;;;6212485;23;20220;-89
2021/10/09 01:19:08;;;;;;;14.10;8.93;;;8.90;99.90;;;;;;6238049;22;20211;-86
2021/10/09 01:21:42;;;;;;;13.20;9.33;;;8.90;99.90;;;;;;6238928;23;20156;-86
2021/10/09 01:24:09;;;;;;;18.37;10.70;;;9.00;99.90;;;;;;6237402;22;20271;-87
2021/10/09 01:26:35;;;;;;;12.83;9.90;;;9.00;99.90;;;;;;6237725;22;20661;-85
2021/10/09 01:29:02;;;;;;;22.33;10.67;;;9.00;99.90;;;;;;6238176;22;20204;-86
2021/10/09 01:31:28;;;;;;;24.03;10.13;;;8.90;99.90;;;;;;6238229;22;20209;-90
2021/10/09 01:33:54;;;;;;;14.67;9.07;;;9.00;99.90;;;;;;6239342;22;20164;-86
2021/10/09 01:36:20;;;;;;;17.50;9.27;;;8.90;99.90;;;;;;6188083;23;20185;-87
2021/10/09 01:38:51;;;;;;;17.53;9.73;;;8.90;99.90;;;;;;6188375;23;20201;-87
2021/10/09 01:41:17;;;;;;;23.03;9.70;;;8.90;99.90;;;;;;6212240;23;20585;-86
2021/10/09 01:43:43;;;;;;;19.20;12.67;;;8.90;99.90;;;;;;6213364;23;20224;-86
2021/10/09 01:46:09;;;;;;;14.27;9.03;;;8.90;99.90;;;;;;6237417;22;20165;-87
2021/10/09 01:48:37;;;;;;;14.83;10.43;;;8.80;99.90;;;;;;6188849;23;20164;-87
2021/10/09 01:51:05;;;;;;;18.23;12.03;;;8.70;99.90;;;;;;6237781;22;20206;-86
2021/10/09 01:53:31;;;;;;;15.50;8.73;;;8.70;99.90;;;;;;6212678;23;20193;-86
2021/10/09 01:55:57;;;;;;;14.13;9.07;;;8.70;99.90;;;;;;6239112;22;20631;-87
2021/10/09 01:58:23;;;;;;;17.77;10.90;;;8.70;99.90;;;;;;6239365;22;20664;-86
2021/10/09 02:00:48;;;;;;;20.87;14.77;;;8.70;99.90;;;;;;6212882;23;20161;-87
2021/10/09 02:03:17;;;;;;;14.47;9.97;;;8.70;99.90;;;;;;6211929;23;20198;-87
2021/10/09 02:05:43;;;;;;;15.53;10.07;;;8.70;99.90;;;;;;6212865;23;20197;-86
2021/10/09 02:08:09;;;;;;;12.03;9.20;;;8.60;99.90;;;;;;6212084;23;20216;-87
2021/10/09 02:10:43;;;;;;;13.60;8.33;;;8.60;99.90;;;;;;6212230;23;20585;-86
2021/10/09 02:13:11;;;;;;;12.83;8.67;;;8.50;99.90;;;;;;6213849;22;20150;-86
2021/10/09 02:15:42;;;;;;;12.47;8.50;;;8.50;99.90;;;;;;6188941;23;20188;-87
2021/10/09 02:26:13;;;;;;;16.13;10.53;;;8.40;99.90;;;;;;6239706;22;20232;-86
2021/10/09 02:28:39;;;;;;;13.60;9.50;;;8.30;99.90;;;;;;6239550;22;20205;-87
2021/10/09 02:31:05;;;;;;;12.73;8.43;;;8.40;99.90;;;;;;6189223;22;20268;-86
2021/10/09 02:33:31;;;;;;;12.07;8.03;;;8.40;99.90;;;;;;6190090;23;20193;-86
2021/10/09 02:35:56;;;;;;;16.23;8.93;;;8.40;99.90;;;;;;6189323;23;20661;-86
2021/10/09 02:38:22;;;;;;;19.40;9.97;;;8.40;99.90;;;;;;6213985;23;20278;-86
2021/10/09 02:40:48;;;;;;;13.00;8.53;;;8.40;99.90;;;;;;6214054;22;20197;-86
2021/10/09 02:43:14;;;;;;;13.50;10.10;;;8.50;99.90;;;;;;6213390;22;20267;-87
2021/10/09 02:45:40;;;;;;;20.57;12.80;;;8.50;99.90;;;;;;6214833;23;20212;-87
2021/10/09 02:48:07;;;;;;;14.17;9.40;;;8.50;99.90;;;;;;6239322;22;20190;-86
2021/10/09 02:50:34;;;;;;;13.80;10.40;;;8.60;99.90;;;;;;6239061;22;20651;-87
2021/10/09 02:53:00;;;;;;;13.87;8.47;;;8.50;99.90;;;;;;6214098;23;20680;-89
2021/10/09 02:55:25;;;;;;;13.00;9.27;;;8.40;99.90;;;;;;6214042;23;20193;-88
2021/10/09 02:57:52;;;;;;;50.03;9.17;;;8.40;99.90;;;;;;6214620;23;20158;-85
2021/10/09 03:00:20;;;;;;;22.93;10.20;;;8.30;99.90;;;;;;6238999;23;20191;-89
2021/10/09 03:02:46;;;;;;;18.47;11.27;;;8.20;99.90;;;;;;6189273;23;20268;-86
2021/10/09 03:05:12;;;;;;;15.93;9.40;;;8.20;99.90;;;;;;6213570;23;20224;-87
2021/10/09 03:07:40;;;;;;;16.40;9.63;;;8.20;99.90;;;;;;6214378;23;20247;-87
2021/10/09 03:10:07;;;;;;;20.00;10.57;;;8.40;99.90;;;;;;6238835;22;20157;-86
2021/10/09 03:12:33;;;;;;;17.43;9.40;;;8.50;99.90;;;;;;6239707;23;20158;-86
2021/10/09 03:14:59;;;;;;;16.40;11.07;;;8.60;99.90;;;;;;6213369;23;20641;-86
2021/10/09 03:17:25;;;;;;;17.90;10.40;;;8.70;99.90;;;;;;6188322;23;20501;-86
2021/10/09 03:19:51;;;;;;;11.90;9.43;;;8.70;99.90;;;;;;6213794;23;20200;-86
2021/10/09 03:22:17;;;;;;;21.77;12.13;;;8.80;99.90;;;;;;6238971;22;20201;-87
2021/10/09 03:24:43;;;;;;;21.40;9.93;;;8.80;99.90;;;;;;6214763;23;20587;-86
2021/10/09 03:27:09;;;;;;;36.97;9.50;;;8.70;99.90;;;;;;6213304;23;20197;-87
2021/10/09 03:29:35;;;;;;;25.43;7.57;;;8.50;99.90;;;;;;6238436;22;20573;-87
2021/10/09 03:32:01;;;;;;;36.33;8.37;;;8.30;99.90;;;;;;6238559;22;20213;-87
2021/10/09 03:34:32;;;;;;;24.47;8.53;;;8.10;99.90;;;;;;6188449;23;20244;-86
2021/10/09 03:37:00;;;;;;;61.97;10.67;;;8.00;99.90;;;;;;6190857;22;20153;-86
2021/10/09 03:39:25;;;;;;;36.50;7.70;;;7.90;99.90;;;;;;6214828;23;20189;-87
2021/10/09 03:41:56;;;;;;;78.23;7.70;;;7.80;99.90;;;;;;6213018;23;20217;-86
2021/10/09 03:44:22;;;;;;;9.07;6.40;;;7.80;99.90;;;;;;6190531;23;20201;-89
2021/10/09 03:46:58;;;;;;;20.77;8.60;;;7.90;99.90;;;;;;6213698;23;20216;-87
2021/10/09 03:49:38;;;;;;;25.47;6.73;;;8.10;99.90;;;;;;6192797;22;20203;-87
2021/10/09 03:54:48;;;;;;;17.27;8.53;;;8.10;99.90;;;;;;6217881;23;20146;-86
2021/10/09 03:57:14;;;;;;;9.20;8.00;;;8.00;99.90;;;;;;6213236;23;20204;-85
2021/10/09 03:59:40;;;;;;;25.33;7.43;;;7.90;99.90;;;;;;6238274;22;20197;-87
2021/10/09 04:02:06;;;;;;;16.37;8.97;;;7.80;99.90;;;;;;6214082;23;20225;-86
2021/10/09 04:04:32;;;;;;;61.37;9.27;;;8.00;99.90;;;;;;6237902;22;20697;-88
2021/10/09 04:06:58;;;;;;;65.97;9.10;;;8.30;99.90;;;;;;6213335;22;20161;-86
2021/10/09 04:09:23;;;;;;;86.50;10.90;;;8.50;99.90;;;;;;6213755;23;20158;-86
2021/10/09 04:11:49;;;;;;;54.43;11.87;;;8.60;99.90;;;;;;6212903;23;20209;-86
2021/10/09 04:14:15;;;;;;;58.80;9.77;;;8.60;99.90;;;;;;6213219;23;20205;-87
2021/10/09 04:16:40;;;;;;;21.00;9.07;;;8.60;99.90;;;;;;6188184;23;20205;-86
2021/10/09 04:19:06;;;;;;;17.80;10.93;;;8.70;99.90;;;;;;6188043;22;20778;-86
2021/10/09 04:21:32;;;;;;;25.03;8.93;;;8.70;99.90;;;;;;6239016;23;20181;-86
2021/10/09 04:23:58;;;;;;;58.83;14.00;;;8.90;99.90;;;;;;6213166;23;21014;-87
2021/10/09 04:26:24;;;;;;;53.57;9.53;;;9.10;99.90;;;;;;6212784;23;20200;-86
2021/10/09 04:28:49;;;;;;;34.73;11.77;;;9.10;99.90;;;;;;6188462;23;20195;-86
2021/10/09 04:31:15;;;;;;;51.63;10.87;;;9.20;99.90;;;;;;6212894;22;20254;-86
2021/10/09 04:33:41;;;;;;;35.57;8.67;;;9.30;99.90;;;;;;6188734;23;20244;-86
2021/10/09 04:36:08;;;;;;;40.63;8.90;;;9.40;99.90;;;;;;6187629;23;20197;-86
2021/10/09 04:38:34;;;;;;;80.27;12.70;;;9.40;99.90;;;;;;6238202;22;20657;-86
2021/10/09 04:41:00;;;;;;;37.50;9.43;;;9.40;99.90;;;;;;6237995;22;20923;-86
2021/10/09 04:43:26;;;;;;;26.97;9.73;;;9.40;99.90;;;;;;6188121;23;20220;-86
2021/10/09 04:45:52;;;;;;;31.00;11.27;;;9.40;99.90;;;;;;6238699;22;20153;-86
2021/10/09 04:48:18;;;;;;;35.57;8.43;;;9.50;99.90;;;;;;6188620;23;20161;-89
2021/10/09 04:50:44;;;;;;;21.27;9.37;;;9.50;99.90;;;;;;6212876;23;20208;-85
2021/10/09 04:53:09;;;;;;;15.27;8.33;;;9.60;99.90;;;;;;6212811;23;20765;-86
2021/10/09 04:55:35;;;;;;;43.57;10.33;;;9.70;99.90;;;;;;6188027;23;20208;-87
2021/10/09 04:58:01;;;;;;;36.00;9.97;;;9.70;99.90;;;;;;6213130;22;20464;-87
2021/10/09 05:00:26;;;;;;;23.60;9.20;;;9.70;99.90;;;;;;6188114;23;20157;-86
2021/10/09 05:02:52;;;;;;;28.60;8.13;;;9.70;99.90;;;;;;6187848;23;20200;-86
2021/10/09 05:05:18;;;;;;;20.60;7.53;;;9.80;99.90;;;;;;6187848;23;20795;-86
2021/10/09 05:07:44;;;;;;;39.53;8.73;;;9.80;99.90;;;;;;6187819;23;20558;-86
2021/10/09 05:10:10;;;;;;;34.43;8.57;;;9.80;99.90;;;;;;6212920;22;20220;-85
2021/10/09 05:12:36;;;;;;;22.10;9.40;;;9.80;99.90;;;;;;6238348;23;20848;-86
2021/10/09 05:15:04;;;;;;;21.93;9.70;;;9.80;99.90;;;;;;6237654;22;20632;-86
2021/10/09 05:17:30;;;;;;;54.77;10.70;;;9.80;99.90;;;;;;6237326;22;20197;-85
2021/10/09 05:19:56;;;;;;;61.90;13.83;;;9.80;99.90;;;;;;6187905;23;20193;-88
2021/10/09 05:22:22;;;;;;;17.90;10.50;;;9.80;99.90;;;;;;6213267;23;20939;-86
2021/10/09 05:24:50;;;;;;;22.03;9.93;;;9.90;99.90;;;;;;6238295;23;20204;-86
2021/10/09 05:27:16;;;;;;;15.30;10.33;;;9.90;99.90;;;;;;6212915;23;20200;-86
2021/10/09 05:29:42;;;;;;;16.47;8.53;;;9.80;99.90;;;;;;6212910;23;20189;-86
2021/10/09 05:32:08;;;;;;;17.93;9.23;;;9.80;99.90;;;;;;6187486;23;20209;-86
2021/10/09 05:34:34;;;;;;;18.20;9.97;;;9.80;99.90;;;;;;6212273;23;21028;-85
2021/10/09 05:37:01;;;;;;;19.60;9.67;;;9.70;99.90;;;;;;6212992;22;20165;-85
2021/10/09 05:39:27;;;;;;;29.40;9.93;;;9.70;99.90;;;;;;6188336;23;20162;-86
2021/10/09 05:41:53;;;;;;;60.20;12.17;;;9.70;99.90;;;;;;6212666;23;20213;-86
2021/10/09 05:44:19;;;;;;;35.83;10.80;;;9.70;99.90;;;;;;6238248;22;20205;-86
2021/10/09 05:46:45;;;;;;;38.80;8.43;;;9.70;99.90;;;;;;6187838;23;20201;-87
2021/10/09 05:49:12;;;;;;;39.33;6.97;;;9.70;99.90;;;;;;6188584;22;20177;-86
2021/10/09 05:51:42;;;;;;;15.17;9.00;;;9.70;99.90;;;;;;6189294;23;20220;-87
2021/10/09 05:54:19;;;;;;;11.33;5.90;;;9.60;99.90;;;;;;6215245;23;20268;-86
2021/10/09 05:56:53;;;;;;;15.40;8.90;;;9.60;99.90;;;;;;6193569;23;20274;-87
2021/10/09 07:00:59;;;;;;;47.67;9.50;;;9.60;99.90;;;;;;6218009;22;20149;-87
2021/10/09 07:03:25;;;;;;;17.13;6.60;;;9.60;99.90;;;;;;6239004;23;20165;-88
2021/10/09 07:05:52;;;;;;;22.10;9.67;;;9.50;99.90;;;;;;6214134;23;20201;-86
2021/10/09 07:08:17;;;;;;;30.80;8.77;;;9.50;99.90;;;;;;6188864;23;20197;-90
2021/10/09 07:10:48;;;;;;;22.07;6.90;;;9.50;99.90;;;;;;6213620;22;20204;-87
2021/10/09 07:13:15;;;;;;;25.77;5.43;;;9.50;99.90;;;;;;6239100;22;20596;-85
2021/10/09 07:15:41;;;;;;;22.13;7.73;;;9.50;99.90;;;;;;6214340;23;20660;-85
2021/10/09 07:18:12;;;;;;;41.10;7.83;;;9.50;99.90;;;;;;6238749;22;20197;-85
2021/10/09 07:20:39;;;;;;;10.33;6.07;;;9.40;99.90;;;;;;6238221;22;20223;-86
2021/10/09 07:23:07;;;;;;;10.77;4.17;;;9.40;99.90;;;;;;6238832;22;20200;-87
2021/10/09 07:25:34;;;;;;;19.23;6.30;;;9.50;99.90;;;;;;6238980;22;20224;-83
2021/10/09 07:28:01;;;;;;;7.73;6.43;;;9.40;99.90;;;;;;6238811;22;20162;-87
2021/10/09 07:30:27;;;;;;;10.43;6.53;;;9.40;99.90;;;;;;6214570;23;20244;-89
2021/10/09 07:32:53;;;;;;;16.63;9.17;;;9.40;99.90;;;;;;6188466;23;20284;-84
2021/10/09 07:35:19;;;;;;;12.67;7.27;;;9.50;99.90;;;;;;6238139;22;20228;-87
2021/10/09 07:37:45;;;;;;;10.63;5.93;;;9.60;99.90;;;;;;6213524;23;20200;-85
2021/10/09 07:40:12;;;;;;;15.43;7.00;;;9.60;99.90;;;;;;6239152;22;20158;-84
2021/10/09 07:42:38;;;;;;;9.63;5.77;;;9.50;99.90;;;;;;6213247;23;20207;-87
2021/10/09 07:45:05;;;;;;;12.93;6.17;;;9.50;99.90;;;;;;6238682;22;20268;-84
2021/10/09 07:47:30;;;;;;;10.17;5.67;;;9.40;99.90;;;;;;6187974;23;20193;-84
2021/10/09 07:49:56;;;;;;;18.23;5.60;;;9.50;99.90;;;;;;6238198;22;20205;-83
2021/10/09 07:52:22;;;;;;;6.83;4.97;;;9.60;99.90;;;;;;6213083;23;20212;-84
2021/10/09 07:54:48;;;;;;;14.33;7.53;;;9.50;99.90;;;;;;6214322;23;20172;-88
2021/10/09 07:57:13;;;;;;;69.67;8.97;;;9.50;99.90;;;;;;6188118;23;20251;-84
2021/10/09 07:59:39;;;;;;;28.97;9.07;;;9.60;99.90;;;;;;6187596;23;20208;-83
2021/10/09 08:02:05;;;;;;;9.80;5.17;;;9.70;99.90;;;;;;6212617;23;20275;-84
2021/10/09 08:04:31;;;;;;;10.77;7.63;;;9.70;99.90;;;;;;6212218;23;20212;-85
2021/10/09 08:06:57;;;;;;;8.37;7.03;;;9.70;99.90;;;;;;6239733;22;20240;-83
2021/10/09 08:09:30;;;;;;;13.50;7.43;;;9.70;99.90;;;;;;6238454;23;20185;-83
2021/10/09 08:11:56;;;;;;;9.33;6.30;;;9.80;99.90;;;;;;6237108;22;20194;-87
2021/10/09 08:14:22;;;;;;;7.17;5.50;;;10.00;99.90;;;;;;6212187;23;20219;-83
2021/10/09 08:16:48;;;;;;;10.40;6.83;;;10.00;99.90;;;;;;6212776;23;20647;-87
2021/10/09 08:19:14;;;;;;;8.13;4.97;;;10.00;99.90;;;;;;6187660;22;20201;-85
2021/10/09 08:21:42;;;;;;;10.63;6.60;;;10.00;99.90;;;;;;6187784;23;20173;-84
2021/10/09 08:40:20;;;;;;;18.67;10.73;;;10.30;99.90;;;;;;6216036;22;20193;-85
2021/10/09 08:42:46;;;;;;;19.17;9.90;;;10.30;99.90;;;;;;6187602;23;20205;-83
2021/10/09 08:45:13;;;;;;;18.30;11.30;;;10.40;99.90;;;;;;6211647;23;20204;-84
2021/10/09 08:47:41;;;;;;;23.27;10.07;;;10.50;99.90;;;;;;6212381;23;20204;-84
2021/10/09 08:50:10;;;;;;;17.97;8.50;;;10.50;99.90;;;;;;6212662;23;20193;-84
2021/10/09 08:52:36;;;;;;;18.07;8.80;;;10.50;99.90;;;;;;6237213;22;20276;-84
2021/10/09 08:55:25;;;;;;;10.80;7.17;;;10.60;99.90;;;;;;6237354;22;20160;-83
2021/10/09 08:57:51;;;;;;;12.83;6.70;;;10.50;99.90;;;;;;6237840;23;20204;-83
2021/10/09 09:00:23;;;;;;;16.30;8.83;;;10.50;99.90;;;;;;6187125;23;20225;-85
2021/10/09 09:03:01;;;;;;;16.73;8.87;;;10.50;99.90;;;;;;6238461;22;20712;-84
2021/10/09 09:30:34;;;;;;;22.73;12.97;;;11.30;99.90;;;;;;6239438;22;20201;-85
2021/10/09 09:41:22;;;;;;;23.50;11.90;;;11.30;99.90;;;;;;6238856;22;20201;-87
2021/10/09 09:43:53;;;;;;;24.00;10.93;;;11.50;99.90;;;;;;6238641;22;20212;-86
2021/10/09 09:46:23;;;;;;;20.73;11.73;;;11.40;99.90;;;;;;6240574;22;20216;-87
2021/10/09 09:48:50;;;;;;;27.27;12.57;;;11.40;99.90;;;;;;6241125;22;20199;-85
2021/10/09 09:51:18;;;;;;;28.47;13.10;;;11.50;99.90;;;;;;6188644;23;20205;-84
2021/10/09 09:53:45;;;;;;;19.37;12.30;;;11.50;99.90;;;;;;6213767;23;20713;-84
2021/10/09 09:56:12;;;;;;;23.50;11.27;;;11.30;99.90;;;;;;6188451;23;20204;-83
2021/10/09 09:58:41;;;;;;;25.07;13.93;;;11.50;99.90;;;;;;6213411;23;20247;-83
2021/10/09 10:01:09;;;;;;;14.60;9.00;;;11.60;99.90;;;;;;6238564;22;20153;-84
2021/10/09 10:03:36;;;;;;;21.03;11.23;;;11.40;99.90;;;;;;6239437;23;20575;-83
2021/10/09 10:06:04;;;;;;;17.40;9.80;;;11.50;99.90;;;;;;6188936;23;20197;-83
2021/10/09 10:08:31;;;;;;;29.00;10.13;;;11.90;99.90;;;;;;6213220;23;20197;-84
2021/10/09 10:10:58;;;;;;;34.23;16.23;;;12.60;99.90;;;;;;6238943;22;20255;-83
2021/10/09 10:13:32;;;;;;;23.73;12.63;;;12.90;99.90;;;;;;6238801;22;20609;-84
2021/10/09 10:15:58;;;;;;;24.87;13.80;;;13.00;99.90;;;;;;6239244;22;20471;-88
2021/10/09 10:18:43;;;;;;;30.53;12.67;;;13.60;99.90;;;;;;6214476;23;20851;-84
2021/10/09 10:21:09;;;;;;;25.20;12.50;;;13.30;99.90;;;;;;6239905;22;20197;-85
2021/10/09 10:23:45;;;;;;;17.67;10.70;;;13.20;99.90;;;;;;6213673;23;20589;-84
2021/10/09 10:26:20;;;;;;;20.33;11.57;;;13.00;99.90;;;;;;6238478;22;20209;-85
2021/10/09 10:28:47;;;;;;;22.53;12.33;;;13.30;99.90;;;;;;6238404;22;20205;-84
2021/10/09 10:31:12;;;;;;;22.67;12.87;;;13.50;99.90;;;;;;6212407;22;20263;-86
2021/10/09 10:33:43;;;;;;;16.80;10.97;;;13.80;99.90;;;;;;6188653;23;20169;-85
2021/10/09 10:36:11;;;;;;;22.83;12.17;;;14.00;99.90;;;;;;6213455;23;20229;-86
2021/10/09 10:38:45;;;;;;;25.43;12.10;;;13.60;99.90;;;;;;6238267;22;20542;-85
2021/10/09 10:41:16;;;;;;;24.13;11.13;;;13.90;99.90;;;;;;6239755;22;20154;-85
2021/10/09 10:43:47;;;;;;;18.33;11.23;;;14.60;99.90;;;;;;6189653;23;20205;-84
2021/10/09 10:46:30;;;;;;;21.87;12.53;;;15.00;99.90;;;;;;6238813;22;20251;-88
2021/10/09 10:57:03;;;;;;;24.53;11.90;;;15.80;99.90;;;;;;6239016;22;20189;-84
2021/10/09 10:59:32;;;;;;;25.97;12.17;;;15.50;99.90;;;;;;6238281;22;20149;-88
2021/10/09 11:02:31;;;;;;;25.57;12.97;;;14.90;99.90;;;;;;6239641;23;20221;-86
2021/10/09 11:05:02;;;;;;;24.40;12.70;;;15.00;99.90;;;;;;6216759;23;20177;-88
2021/10/09 11:07:41;;;;;;;24.77;13.23;;;15.60;99.90;;;;;;6212861;23;20201;-85
2021/10/09 11:10:18;;;;;;;23.27;11.90;;;16.40;99.90;;;;;;6238579;22;20450;-82
2021/10/09 11:12:49;;;;;;;24.87;11.67;;;16.60;99.90;;;;;;6238435;22;20189;-85
2021/10/09 11:15:28;;;;;;;20.10;11.57;;;17.20;99.90;;;;;;6213847;23;20200;-85
2021/10/09 11:18:02;;;;;;;22.00;12.07;;;17.50;99.90;;;;;;6238962;22;20193;-84
2021/10/09 11:20:42;;;;;;;20.83;11.73;;;17.00;99.90;;;;;;6213741;22;20771;-86
2021/10/09 11:23:11;;;;;;;22.67;10.20;;;16.90;99.90;;;;;;6192010;23;20225;-85
2021/10/09 11:25:43;;;;;;;21.70;11.30;;;17.20;99.90;;;;;;6238805;22;20235;-85
2021/10/09 11:28:30;;;;;;;16.23;11.50;;;16.80;99.90;;;;;;6239236;22;20669;-88
2021/10/09 11:30:56;;;;;;;18.90;10.17;;;16.50;99.90;;;;;;6238680;22;20211;-85
2021/10/09 11:33:23;;;;;;;20.20;12.07;;;16.40;99.90;;;;;;6213541;23;20558;-85
2021/10/09 11:35:49;;;;;;;18.23;10.93;;;16.20;99.90;;;;;;6238660;22;20189;-85
2021/10/09 11:38:32;;;;;;;18.97;10.13;;;15.60;99.90;;;;;;6189287;23;20648;-85
2021/10/09 11:44:01;;;;;;;15.40;8.83;;;15.30;99.90;;;;;;6238707;22;20543;-85
2021/10/09 11:55:16;;;;;;;19.30;9.17;;;15.50;99.90;;;;;;6240119;22;20197;-85
2021/10/09 11:57:42;;;;;;;24.70;10.63;;;15.50;99.90;;;;;;6238284;22;20661;-85
2021/10/09 12:00:29;;;;;;;20.60;11.33;;;15.10;99.90;;;;;;6213476;23;20228;-84
2021/10/09 12:02:59;;;;;;;18.67;9.97;;;15.20;99.90;;;;;;6240100;22;20635;-84
2021/10/09 12:05:35;;;;;;;20.70;10.73;;;15.20;99.90;;;;;;6238705;22;20188;-84
2021/10/09 12:08:18;;;;;;;21.17;9.13;;;15.00;99.90;;;;;;6240304;22;20149;-84
2021/10/09 12:11:22;;;;;;;20.43;10.50;;;15.30;99.90;;;;;;6238601;23;20634;-85
2021/10/09 12:13:49;;;;;;;17.23;9.23;;;15.20;99.90;;;;;;6238928;23;20185;-84
2021/10/09 12:16:16;;;;;;;20.37;10.03;;;14.90;99.90;;;;;;6238229;22;20193;-87
2021/10/09 12:18:54;;;;;;;21.90;10.80;;;15.20;99.90;;;;;;6212816;23;20200;-85
2021/10/09 12:21:22;;;;;;;19.43;10.67;;;15.20;99.90;;;;;;6237929;22;20205;-84
2021/10/09 12:23:48;;;;;;;16.30;9.00;;;15.00;99.90;;;;;;6213234;23;20197;-84
2021/10/09 12:26:19;;;;;;;24.23;10.97;;;15.10;99.90;;;;;;6213655;23;20182;-88
2021/10/09 12:29:04;;;;;;;22.73;10.80;;;15.10;99.90;;;;;;6212688;23;20181;-85
2021/10/09 12:31:32;;;;;;;24.27;10.47;;;15.20;99.90;;;;;;6237887;22;20205;-84
2021/10/09 12:33:58;;;;;;;20.17;9.80;;;15.20;99.90;;;;;;6213160;23;20643;-84
2021/10/09 12:36:44;;;;;;;17.43;9.47;;;15.20;99.90;;;;;;6212555;23;20246;-84
2021/10/09 12:39:21;;;;;;;22.73;9.60;;;15.10;99.90;;;;;;6239558;22;20193;-85
2021/10/09 12:41:48;;;;;;;16.60;8.90;;;15.10;99.90;;;;;;6212860;23;20275;-85
2021/10/09 12:44:14;;;;;;;19.93;10.60;;;15.20;99.90;;;;;;6213577;23;20545;-84
2021/10/09 12:46:39;;;;;;;16.30;9.07;;;15.10;99.90;;;;;;6237512;22;20208;-85
2021/10/09 12:49:05;;;;;;;20.97;9.60;;;15.10;99.90;;;;;;6187608;23;20197;-84
2021/10/09 12:51:31;;;;;;;19.40;11.03;;;15.10;99.90;;;;;;6212627;23;20205;-89
2021/10/09 12:54:03;;;;;;;20.03;10.63;;;15.20;99.90;;;;;;6212760;23;20239;-84
2021/10/09 12:56:28;;;;;;;20.87;11.57;;;15.00;99.90;;;;;;6214261;22;20161;-84
2021/10/09 12:58:54;;;;;;;20.87;9.80;;;15.10;99.90;;;;;;6188177;23;20161;-85
2021/10/09 13:01:20;;;;;;;17.53;9.53;;;15.30;99.90;;;;;;6186728;23;20189;-87
2021/10/09 13:03:45;;;;;;;22.10;10.57;;;15.10;99.90;;;;;;6187514;23;20243;-86
2021/10/09 13:06:11;;;;;;;20.47;11.83;;;15.00;99.90;;;;;;6212246;23;20189;-85
2021/10/09 13:08:38;;;;;;;19.43;10.77;;;15.00;99.90;;;;;;6212666;22;20199;-84
2021/10/09 13:11:04;;;;;;;21.60;11.53;;;15.10;99.90;;;;;;6188548;23;20262;-84
2021/10/09 13:13:30;;;;;;;21.33;9.10;;;15.10;99.90;;;;;;6187820;23;20193;-84
2021/10/09 13:15:55;;;;;;;23.60;9.87;;;15.20;99.90;;;;;;6187064;23;20255;-84
2021/10/09 13:18:21;;;;;;;23.27;10.67;;;15.30;99.90;;;;;;6237705;22;20193;-85
2021/10/09 13:20:47;;;;;;;16.37;8.77;;;15.40;99.90;;;;;;6212164;23;20583;-85
2021/10/09 13:23:13;;;;;;;21.13;10.70;;;15.30;99.90;;;;;;6187916;23;20158;-85
2021/10/09 13:25:40;;;;;;;19.23;9.93;;;15.10;99.90;;;;;;6212219;23;20223;-85
2021/10/09 13:28:06;;;;;;;18.50;9.73;;;15.10;99.90;;;;;;6213235;23;20189;-84
2021/10/09 13:30:33;;;;;;;22.43;9.90;;;15.20;99.90;;;;;;6237762;22;20646;-90
2021/10/09 13:32:58;;;;;;;34.73;11.97;;;15.20;99.90;;;;;;6237177;22;20185;-89
2021/10/09 13:35:24;;;;;;;21.23;9.93;;;15.30;99.90;;;;;;6187202;22;20223;-85
2021/10/09 13:37:54;;;;;;;22.30;10.23;;;15.40;99.90;;;;;;6237797;23;20180;-89
2021/10/09 13:40:20;;;;;;;21.77;10.67;;;15.50;99.90;;;;;;6237297;22;20193;-84
2021/10/09 13:42:46;;;;;;;23.53;11.10;;;15.40;99.90;;;;;;6187078;23;20209;-84
2021/10/09 13:45:12;;;;;;;26.13;11.43;;;15.50;99.90;;;;;;6212329;23;20196;-85
2021/10/09 13:47:39;;;;;;;18.50;10.03;;;15.40;99.90;;;;;;6187564;22;20189;-85
2021/10/09 13:50:05;;;;;;;19.30;10.57;;;15.40;99.90;;;;;;6238021;23;20153;-85
2021/10/09 13:52:31;;;;;;;18.30;9.87;;;15.30;99.90;;;;;;6237268;22;20220;-85
2021/10/09 13:54:57;;;;;;;18.57;10.93;;;15.30;99.90;;;;;;6212116;23;20217;-84
2021/10/09 13:57:22;;;;;;;20.03;10.47;;;15.50;99.90;;;;;;6187228;23;20189;-85
2021/10/09 13:59:48;;;;;;;20.23;10.00;;;15.50;99.90;;;;;;6187279;23;20192;-89
2021/10/09 14:02:14;;;;;;;17.40;9.83;;;15.40;99.90;;;;;;6238341;23;20161;-84
2021/10/09 14:04:40;;;;;;;21.43;9.83;;;15.30;99.90;;;;;;6186541;23;20242;-87
2021/10/09 14:07:06;;;;;;;23.77;10.27;;;15.30;99.90;;;;;;6186756;23;20194;-84
2021/10/09 14:09:32;;;;;;;22.37;10.50;;;15.20;99.90;;;;;;6236639;22;20204;-86
2021/10/09 14:11:59;;;;;;;16.40;10.13;;;15.30;99.90;;;;;;6186573;23;20241;-90
2021/10/09 14:14:25;;;;;;;27.83;10.60;;;15.30;99.90;;;;;;6188860;22;20165;-84
2021/10/09 14:16:52;;;;;;;23.40;10.63;;;15.40;99.90;;;;;;6189215;23;20196;-84
2021/10/09 14:19:18;;;;;;;18.00;8.80;;;15.40;99.90;;;;;;6239035;22;20631;-85
2021/10/09 14:21:44;;;;;;;20.10;9.73;;;15.50;99.90;;;;;;6188945;23;20219;-85
2021/10/09 14:24:09;;;;;;;17.47;10.33;;;15.40;99.90;;;;;;6214019;23;20196;-89
2021/10/09 14:26:36;;;;;;;21.27;10.47;;;15.40;99.90;;;;;;6214353;22;20215;-86
2021/10/09 14:29:02;;;;;;;20.30;9.57;;;15.30;99.90;;;;;;6240179;23;20157;-85
2021/10/09 14:31:28;;;;;;;21.77;10.20;;;15.30;99.90;;;;;;6214183;23;20208;-86
2021/10/09 14:33:54;;;;;;;19.67;10.10;;;15.30;99.90;;;;;;6213824;23;20255;-86
2021/10/09 14:36:20;;;;;;;16.63;9.20;;;15.40;99.90;;;;;;6213325;23;20193;-88
2021/10/09 14:38:46;;;;;;;19.30;10.57;;;15.40;99.90;;;;;;6213310;23;20239;-85
2021/10/09 14:41:14;;;;;;;26.97;11.07;;;15.40;99.90;;;;;;6239069;22;20196;-85
2021/10/09 14:43:41;;;;;;;22.47;10.57;;;15.30;99.90;;;;;;6238305;22;20250;-89
2021/10/09 14:48:48;;;;;;;20.07;10.00;;;15.40;99.90;;;;;;6238698;22;20197;-87
2021/10/09 15:18:25;;;;;;;19.47;8.90;;;15.10;99.90;;;;;;6217420;23;20193;-86
2021/10/09 15:20:52;;;;;;;23.37;10.80;;;15.10;99.90;;;;;;6192132;23;20203;-85
2021/10/09 15:23:18;;;;;;;22.27;10.97;;;15.20;99.90;;;;;;6238597;22;20483;-85
2021/10/09 15:25:45;;;;;;;18.43;10.00;;;15.10;99.90;;;;;;6188657;23;20157;-86
2021/10/09 15:28:12;;;;;;;23.50;11.47;;;14.90;99.90;;;;;;6188675;23;20377;-86
2021/10/09 15:30:39;;;;;;;20.43;9.57;;;14.90;99.90;;;;;;6239533;22;20208;-87
2021/10/09 15:33:04;;;;;;;20.03;10.83;;;14.80;99.90;;;;;;6238730;22;20196;-86